Time;durP1;ratioP1;P1;durP2;ratioP2;P2;SDS_P1;SDS_P2;PMS_P1;PMS_P2;Temp;Humidity;BMP_temperature;BMP_pressure;BME280_temperature;BME280_humidity;BME280_pressure;Samples;Min_cycle;Max_cycle;Signal;HPM_P1;HPM_P2
2021/11/23 00:00:45;;;;;;;25.90;9.05;;;;;;;5.67;87.68;103098.06;5042695;28;20021;-39
2021/11/23 00:03:12;;;;;;;32.70;8.80;;;;;;;5.71;87.41;103096.88;5054295;28;20025;-39
2021/11/23 00:05:37;;;;;;;23.85;8.23;;;;;;;5.73;87.61;103100.34;5054872;28;20032;-39
2021/11/23 00:08:03;;;;;;;23.52;8.40;;;;;;;5.73;87.34;103095.84;5054697;28;20033;-39
2021/11/23 00:10:29;;;;;;;25.20;6.90;;;;;;;5.76;87.60;103093.94;5054888;28;20025;-39
2021/11/23 00:12:54;;;;;;;30.45;10.32;;;;;;;5.75;87.50;103087.75;5054948;28;20033;-39
2021/11/23 00:15:20;;;;;;;28.10;8.60;;;;;;;5.79;87.74;103086.59;5052312;28;20488;-39
2021/11/23 00:17:45;;;;;;;31.52;9.98;;;;;;;5.84;87.87;103089.81;5037595;28;20036;-39
2021/11/23 00:20:11;;;;;;;31.77;8.88;;;;;;;5.90;87.83;103084.13;5034779;28;20021;-39
2021/11/23 00:22:36;;;;;;;27.52;9.65;;;;;;;5.96;87.58;103090.06;5033577;28;20401;-39
2021/11/23 00:25:03;;;;;;;31.58;9.70;;;;;;;6.00;87.59;103087.09;5034711;28;20029;-39
2021/11/23 00:27:29;;;;;;;26.37;7.87;;;;;;;6.06;87.55;103088.53;5034538;28;20025;-38
2021/11/23 00:29:54;;;;;;;27.35;8.35;;;;;;;6.11;87.52;103084.63;5041651;28;20083;-40
2021/11/23 00:32:20;;;;;;;21.00;7.80;;;;;;;6.15;87.32;103091.47;5049834;28;20029;-39
2021/11/23 00:34:45;;;;;;;23.02;8.70;;;;;;;6.20;87.58;103093.84;5054555;28;20057;-39
2021/11/23 00:37:10;;;;;;;28.30;9.77;;;;;;;6.24;87.51;103090.03;5053075;28;20017;-39
2021/11/23 00:39:36;;;;;;;26.92;8.70;;;;;;;6.26;86.84;103090.78;5054242;28;20162;-39
2021/11/23 00:42:02;;;;;;;24.67;8.20;;;;;;;6.29;87.02;103087.94;5054190;28;20021;-39
2021/11/23 00:44:27;;;;;;;27.48;8.20;;;;;;;6.32;87.17;103079.72;5054109;28;20406;-39
2021/11/23 00:46:52;;;;;;;23.45;7.93;;;;;;;6.36;86.98;103083.03;5053727;28;20495;-39
2021/11/23 00:49:18;;;;;;;27.67;9.25;;;;;;;6.41;87.12;103096.09;5037580;28;20025;-39
2021/11/23 00:51:44;;;;;;;23.85;8.20;;;;;;;6.44;87.14;103095.91;5032866;28;20079;-39
2021/11/23 00:54:09;;;;;;;23.33;9.38;;;;;;;6.46;87.13;103094.00;5034457;28;20472;-39
2021/11/23 00:56:35;;;;;;;26.73;7.60;;;;;;;6.46;87.05;103088.66;5034629;28;20060;-39
2021/11/23 00:59:01;;;;;;;28.35;7.57;;;;;;;6.50;87.15;103092.81;5034470;28;20464;-39
2021/11/23 01:01:26;;;;;;;21.55;7.47;;;;;;;6.51;87.19;103086.53;5020841;28;20036;-40
2021/11/23 01:03:51;;;;;;;23.23;7.22;;;;;;;6.52;87.29;103086.41;5052107;28;20041;-40
2021/11/23 01:06:17;;;;;;;22.33;7.15;;;;;;;6.53;87.34;103092.63;5034340;28;20133;-40
2021/11/23 01:08:43;;;;;;;18.27;6.50;;;;;;;6.52;87.11;103082.88;5033153;28;20056;-41
2021/11/23 01:11:11;;;;;;;21.85;6.63;;;;;;;6.53;87.13;103084.59;5034508;28;20100;-40
2021/11/23 01:13:37;;;;;;;19.80;6.93;;;;;;;6.53;86.97;103076.56;5033405;28;20049;-40
2021/11/23 01:16:03;;;;;;;23.92;7.25;;;;;;;6.54;87.30;103081.81;5032850;28;20033;-40
2021/11/23 01:18:31;;;;;;;17.85;7.13;;;;;;;6.57;87.36;103078.09;5033638;28;20125;-40
2021/11/23 01:20:56;;;;;;;26.42;6.75;;;;;;;6.56;87.14;103079.91;5046672;28;20474;-40
2021/11/23 01:23:22;;;;;;;15.50;6.70;;;;;;;6.56;87.34;103074.56;5053298;28;20021;-39
2021/11/23 01:25:48;;;;;;;19.33;6.15;;;;;;;6.59;87.86;103073.50;5053275;28;20472;-39
2021/11/23 01:28:14;;;;;;;16.85;6.18;;;;;;;6.61;87.66;103066.25;5053189;28;20066;-40
2021/11/23 01:30:40;;;;;;;13.57;5.55;;;;;;;6.60;87.72;103068.03;5039661;28;20465;-39
2021/11/23 01:33:05;;;;;;;22.35;5.38;;;;;;;6.63;87.52;103069.66;5015551;28;20018;-39
2021/11/23 01:35:30;;;;;;;17.25;5.53;;;;;;;6.67;87.40;103068.50;5034998;28;20026;-39
2021/11/23 01:37:55;;;;;;;13.68;5.30;;;;;;;6.72;87.14;103065.53;5053088;28;20020;-39
2021/11/23 01:40:21;;;;;;;15.52;4.68;;;;;;;6.74;86.72;103060.91;5052994;28;20036;-39
2021/11/23 01:42:48;;;;;;;18.10;4.25;;;;;;;6.76;86.96;103073.22;5052920;28;20025;-40
2021/11/23 01:45:13;;;;;;;13.90;4.07;;;;;;;6.76;86.75;103067.03;5053179;28;20235;-39
2021/11/23 01:47:39;;;;;;;18.10;4.15;;;;;;;6.80;87.05;103058.69;5053035;28;20122;-40
2021/11/23 01:50:06;;;;;;;21.13;4.30;;;;;;;6.86;86.93;103056.56;5051529;28;20083;-39
2021/11/23 01:52:32;;;;;;;15.18;4.18;;;;;;;6.87;87.02;103058.28;5039326;28;20074;-39
2021/11/23 01:54:57;;;;;;;12.25;4.35;;;;;;;6.87;86.80;103055.59;5032825;28;20104;-39
2021/11/23 01:57:23;;;;;;;11.32;3.78;;;;;;;6.84;86.49;103062.00;5032818;28;20375;-39
2021/11/23 01:59:48;;;;;;;15.30;3.45;;;;;;;6.85;86.70;103063.75;5015193;28;20036;-39
2021/11/23 02:02:15;;;;;;;11.35;4.35;;;;;;;6.87;86.77;103060.94;5032773;28;20106;-40
2021/11/23 02:04:40;;;;;;;18.08;3.97;;;;;;;6.88;87.02;103058.19;5032919;28;20021;-39
2021/11/23 02:07:06;;;;;;;11.43;4.15;;;;;;;6.91;87.03;103057.97;5033674;28;20108;-40
2021/11/23 02:09:32;;;;;;;13.13;3.55;;;;;;;6.93;87.00;103060.56;5032654;28;20033;-39
2021/11/23 02:12:00;;;;;;;15.70;3.38;;;;;;;6.96;87.27;103058.53;5032691;28;20033;-40
2021/11/23 02:14:27;;;;;;;;;;;;;;;6.98;87.15;103053.06;5033002;28;20124;-39
2021/11/23 02:16:53;;;;;;;14.00;3.08;;;;;;;6.99;86.70;103054.78;5032713;28;19996;-40
2021/11/23 02:19:18;;;;;;;14.25;3.55;;;;;;;7.04;86.51;103055.31;5032860;28;20060;-40
2021/11/23 02:21:44;;;;;;;19.92;4.00;;;;;;;7.08;86.98;103047.94;5032230;28;20133;-39
2021/11/23 02:24:09;;;;;;;13.52;3.55;;;;;;;7.07;87.02;103046.22;5035855;28;20396;-39
2021/11/23 02:26:34;;;;;;;11.85;3.08;;;;;;;7.05;86.60;103046.31;5030952;28;20448;-39
2021/11/23 02:29:00;;;;;;;11.82;3.33;;;;;;;7.02;86.62;103044.69;5032515;28;20112;-40
2021/11/23 02:31:25;;;;;;;10.32;3.15;;;;;;;7.04;86.91;103041.94;5052215;28;20035;-40
2021/11/23 02:33:50;;;;;;;12.65;3.03;;;;;;;7.06;86.24;103039.13;5052598;28;20388;-40
2021/11/23 02:36:16;;;;;;;15.77;3.60;;;;;;;7.09;86.32;103039.81;5052438;28;20436;-40
2021/11/23 02:38:41;;;;;;;14.65;2.90;;;;;;;7.11;86.48;103037.88;5048464;28;20369;-40
2021/11/23 02:41:10;;;;;;;13.57;3.03;;;;;;;7.11;86.27;103032.53;5050656;28;20467;-39
2021/11/23 02:43:38;;;;;;;13.10;2.90;;;;;;;7.12;86.47;103033.38;5052351;28;20395;-40
2021/11/23 02:46:04;;;;;;;13.07;3.17;;;;;;;7.19;86.34;103038.22;5052318;28;20029;-40
2021/11/23 02:48:29;;;;;;;16.35;3.13;;;;;;;7.15;86.67;103027.81;5052350;28;20104;-39
2021/11/23 02:53:30;;;;;;;13.32;2.80;;;;;;;7.08;87.19;103018.47;5052252;28;20048;-40
2021/11/23 02:55:56;;;;;;;11.43;2.75;;;;;;;7.08;87.51;103027.34;5041024;28;20029;-40
2021/11/23 02:58:21;;;;;;;12.52;2.58;;;;;;;7.09;87.13;103029.09;5032668;28;20032;-39
2021/11/23 03:00:47;;;;;;;11.60;2.45;;;;;;;7.11;87.50;103021.81;5032127;28;20022;-38
2021/11/23 03:03:12;;;;;;;15.40;2.53;;;;;;;7.11;88.09;103020.94;5032236;28;20128;-39
2021/11/23 03:05:40;;;;;;;17.30;2.80;;;;;;;7.08;87.34;103010.44;5032093;28;20030;-39
2021/11/23 03:08:05;;;;;;;15.43;2.95;;;;;;;7.04;87.48;103015.16;5032240;28;20083;-40
2021/11/23 03:10:31;;;;;;;12.35;2.50;;;;;;;7.02;87.67;103019.75;5032020;28;20022;-39
2021/11/23 03:12:57;;;;;;;11.13;2.85;;;;;;;7.01;87.84;103010.03;5050390;28;20043;-39
2021/11/23 03:15:24;;;;;;;13.90;2.63;;;;;;;7.00;87.91;102998.47;5050557;28;20056;-39
2021/11/23 03:17:50;;;;;;;17.15;2.78;;;;;;;7.02;88.52;103009.03;5050693;28;20108;-40
2021/11/23 03:20:17;;;;;;;11.43;2.78;;;;;;;7.01;88.43;103007.34;5051965;28;20057;-39
2021/11/23 03:22:42;;;;;;;16.25;2.53;;;;;;;7.03;88.68;103008.09;5052032;28;20116;-40
2021/11/23 03:25:09;;;;;;;10.90;2.53;;;;;;;7.08;88.74;103016.66;5051912;28;20068;-40
2021/11/23 03:27:35;;;;;;;14.40;2.83;;;;;;;7.10;88.92;103013.88;5042041;28;20479;-40
2021/11/23 03:30:00;;;;;;;13.90;2.63;;;;;;;7.11;89.13;103011.09;5039747;28;20025;-40
2021/11/23 03:32:26;;;;;;;8.35;2.60;;;;;;;7.12;88.71;103011.97;5051776;28;20029;-39
2021/11/23 03:34:52;;;;;;;9.57;2.55;;;;;;;7.21;88.40;103005.94;5051786;28;20388;-40
2021/11/23 03:37:21;;;;;;;10.90;2.00;;;;;;;7.33;88.58;103004.25;5051829;28;20155;-40
2021/11/23 03:39:47;;;;;;;13.65;1.48;;;;;;;7.44;89.85;103012.38;5055219;28;20017;-39
2021/11/23 03:42:13;;;;;;;4.72;1.33;;;;;;;7.53;90.18;103016.22;5053379;28;20033;-39
2021/11/23 03:44:38;;;;;;;5.25;0.90;;;;;;;7.67;90.61;103014.28;5034438;28;20032;-39
2021/11/23 03:47:05;;;;;;;8.15;1.02;;;;;;;7.73;90.91;103018.34;5055192;28;20029;-39
2021/11/23 03:49:31;;;;;;;7.40;1.40;;;;;;;7.79;91.13;103011.69;5055192;28;20032;-39
2021/11/23 03:51:57;;;;;;;11.38;0.73;;;;;;;7.85;91.25;103005.91;5054926;28;20418;-39
2021/11/23 03:54:24;;;;;;;7.78;1.05;;;;;;;7.88;90.95;103006.53;5054910;28;20040;-39
2021/11/23 03:56:50;;;;;;;6.93;0.77;;;;;;;7.93;91.03;102991.94;5055126;28;20103;-39
2021/11/23 03:59:15;;;;;;;9.38;0.75;;;;;;;7.92;90.61;103001.78;5046341;28;20017;-40
2021/11/23 04:01:41;;;;;;;9.80;0.85;;;;;;;7.95;90.73;103006.06;5041349;28;20111;-39
2021/11/23 04:04:06;;;;;;;10.60;1.15;;;;;;;7.96;90.49;102994.41;5064674;28;20100;-40
2021/11/23 04:06:32;;;;;;;4.78;0.88;;;;;;;7.96;91.00;102997.06;5054818;28;20120;-39
2021/11/23 04:08:57;;;;;;;3.15;0.85;;;;;;;7.95;91.04;103003.38;5054702;28;20383;-40
2021/11/23 04:11:22;;;;;;;3.30;0.88;;;;;;;7.95;90.87;102996.19;5054801;28;20029;-39
2021/11/23 04:13:48;;;;;;;6.78;0.90;;;;;;;7.94;91.16;103005.22;5053645;28;20067;-39
2021/11/23 04:16:14;;;;;;;5.25;1.27;;;;;;;7.94;91.05;102999.00;5038015;28;20376;-38
2021/11/23 04:18:40;;;;;;;11.02;1.08;;;;;;;7.93;91.37;103003.53;5034448;28;20028;-39
2021/11/23 04:21:05;;;;;;;8.18;0.95;;;;;;;7.92;91.10;103007.16;5034620;28;20026;-38
2021/11/23 04:23:30;;;;;;;3.67;1.00;;;;;;;7.96;91.21;103010.47;5034550;28;20133;-38
2021/11/23 04:25:56;;;;;;;7.50;1.02;;;;;;;7.94;91.00;103002.53;5034541;28;20101;-39
2021/11/23 04:28:21;;;;;;;3.78;0.90;;;;;;;7.93;91.07;103008.88;5034559;28;20025;-39
2021/11/23 04:30:47;;;;;;;9.20;0.93;;;;;;;7.91;91.13;103002.75;5038087;28;20364;-38
2021/11/23 04:33:16;;;;;;;7.13;1.40;;;;;;;7.89;91.34;103007.38;5033095;28;20445;-39
2021/11/23 04:35:42;;;;;;;7.93;1.65;;;;;;;7.88;91.41;102995.81;5034219;28;20071;-39
2021/11/23 04:38:08;;;;;;;6.32;0.93;;;;;;;7.88;91.63;103005.69;5034214;28;20022;-39
2021/11/23 04:40:34;;;;;;;6.55;1.23;;;;;;;7.86;91.46;102994.19;5034258;28;20104;-39
2021/11/23 04:42:59;;;;;;;8.00;0.98;;;;;;;7.86;91.45;103002.25;5033866;28;20120;-39
2021/11/23 04:45:24;;;;;;;6.18;0.80;;;;;;;7.82;91.64;102990.91;5034300;28;20057;-39
2021/11/23 04:47:50;;;;;;;4.03;0.80;;;;;;;7.83;91.86;102989.06;5047195;28;20503;-39
2021/11/23 04:50:15;;;;;;;3.38;0.60;;;;;;;7.84;92.02;102988.09;5053800;28;20473;-39
2021/11/23 04:52:41;;;;;;;8.38;1.33;;;;;;;7.83;92.31;102991.75;5054034;28;20060;-39
2021/11/23 04:55:07;;;;;;;6.20;0.80;;;;;;;7.83;92.20;102989.91;5054127;28;20070;-40
2021/11/23 04:57:32;;;;;;;5.18;1.13;;;;;;;7.83;92.10;102986.38;5054351;28;20108;-39
2021/11/23 04:59:58;;;;;;;5.03;1.23;;;;;;;7.87;91.92;102993.22;5054622;28;20480;-39
2021/11/23 05:02:23;;;;;;;5.90;1.52;;;;;;;7.87;92.06;102993.22;5050101;28;20025;-39
2021/11/23 05:04:48;;;;;;;10.27;1.75;;;;;;;7.86;92.05;102983.47;5033727;28;20033;-39
2021/11/23 05:07:14;;;;;;;7.45;1.65;;;;;;;7.84;91.76;102988.09;5033809;28;20030;-39
2021/11/23 05:09:39;;;;;;;8.38;1.40;;;;;;;7.82;91.93;102984.66;5015921;28;20365;-39
2021/11/23 05:12:05;;;;;;;5.82;1.40;;;;;;;7.81;92.27;102982.94;5033996;28;20500;-39
2021/11/23 05:14:30;;;;;;;6.00;1.40;;;;;;;7.79;91.99;102971.47;5032520;28;20420;-39
2021/11/23 05:16:56;;;;;;;7.18;1.60;;;;;;;7.77;92.38;102976.97;5033710;28;20037;-39
2021/11/23 05:19:21;;;;;;;4.95;1.20;;;;;;;7.78;92.68;102972.47;5036217;28;20048;-39
2021/11/23 05:21:46;;;;;;;7.57;1.40;;;;;;;7.78;92.86;102975.13;5030478;28;20032;-39
2021/11/23 05:24:13;;;;;;;6.85;1.75;;;;;;;7.78;92.72;102972.47;5030512;28;20033;-39
2021/11/23 05:26:39;;;;;;;10.57;1.90;;;;;;;7.84;92.80;102982.72;5029372;28;20104;-39
2021/11/23 05:29:05;;;;;;;13.25;2.20;;;;;;;7.84;92.80;102978.22;5030188;28;20025;-39
2021/11/23 05:31:31;;;;;;;11.48;1.92;;;;;;;7.85;93.05;102985.31;5050151;28;20024;-39
2021/11/23 05:33:57;;;;;;;10.98;1.95;;;;;;;7.85;92.94;102979.09;5045464;28;20060;-39
2021/11/23 05:36:22;;;;;;;8.68;1.70;;;;;;;7.88;92.97;102984.22;5049735;28;20056;-39
2021/11/23 05:38:48;;;;;;;15.25;2.40;;;;;;;7.87;92.71;102979.81;5049845;28;20111;-39
2021/11/23 05:41:13;;;;;;;10.02;2.00;;;;;;;7.89;92.87;102984.09;5049852;28;20063;-39
2021/11/23 05:43:39;;;;;;;12.63;2.28;;;;;;;7.89;92.36;102985.94;5048646;28;20068;-39
2021/11/23 05:46:04;;;;;;;10.48;2.40;;;;;;;7.89;92.40;102981.41;5049579;28;20163;-39
2021/11/23 05:48:29;;;;;;;9.23;2.30;;;;;;;7.90;92.40;102976.94;5049705;28;20083;-39
2021/11/23 05:50:55;;;;;;;8.73;2.28;;;;;;;7.93;92.85;102983.91;5047625;28;20033;-39
2021/11/23 05:53:21;;;;;;;10.07;2.08;;;;;;;7.93;92.55;102971.34;5049942;28;20450;-38
2021/11/23 05:55:46;;;;;;;7.70;1.85;;;;;;;7.95;92.34;102974.75;5037282;28;20037;-39
2021/11/23 05:58:12;;;;;;;6.57;1.58;;;;;;;8.03;92.08;102976.88;5029643;28;20439;-39
2021/11/23 06:00:38;;;;;;;12.75;1.83;;;;;;;8.16;91.28;102966.94;5027910;28;20481;-39
2021/11/23 06:03:03;;;;;;;15.50;1.95;;;;;;;8.22;90.98;102976.38;5038404;28;20120;-39
2021/11/23 06:05:28;;;;;;;16.77;1.80;;;;;;;8.33;90.61;102971.06;5046067;28;20084;-40
2021/11/23 06:07:54;;;;;;;11.00;1.58;;;;;;;8.47;89.73;102978.09;5037523;28;20037;-40
2021/11/23 06:10:20;;;;;;;11.68;1.55;;;;;;;8.52;89.85;102979.47;5050304;28;20029;-39
2021/11/23 06:12:46;;;;;;;13.27;1.48;;;;;;;8.63;89.76;102983.16;5050781;28;20072;-39
2021/11/23 06:15:13;;;;;;;11.13;1.40;;;;;;;8.68;89.18;102983.66;5052170;28;20128;-40
2021/11/23 06:17:38;;;;;;;8.63;1.23;;;;;;;8.72;89.08;102985.16;5052319;28;20392;-39
2021/11/23 06:20:05;;;;;;;10.48;1.60;;;;;;;8.69;89.27;102994.31;5052162;28;20028;-39
2021/11/23 06:22:34;;;;;;;9.43;1.30;;;;;;;8.69;88.88;102985.38;5043193;28;20499;-39
2021/11/23 06:24:59;;;;;;;10.60;1.40;;;;;;;8.68;89.05;102994.41;5032339;28;20053;-39
2021/11/23 06:27:25;;;;;;;15.13;1.67;;;;;;;8.70;89.41;102987.09;5032294;28;20060;-40
2021/11/23 06:29:50;;;;;;;21.67;1.90;;;;;;;8.69;89.52;102997.00;5038799;28;20100;-38
2021/11/23 06:32:16;;;;;;;7.00;1.10;;;;;;;8.73;89.18;102997.59;5051910;28;20025;-39
2021/11/23 06:34:41;;;;;;;16.42;1.80;;;;;;;8.73;89.29;102994.91;5050730;28;20025;-39
2021/11/23 06:37:07;;;;;;;13.57;1.83;;;;;;;8.74;89.42;103000.19;5045671;28;20451;-39
2021/11/23 06:39:32;;;;;;;13.68;1.42;;;;;;;8.72;90.08;102996.75;5050064;28;20021;-40
2021/11/23 06:41:57;;;;;;;16.90;1.70;;;;;;;8.76;90.55;102994.69;5050593;28;20040;-41
2021/11/23 06:44:23;;;;;;;16.85;2.88;;;;;;;8.73;91.24;102995.75;5050370;28;20032;-40
2021/11/23 06:46:48;;;;;;;11.20;1.80;;;;;;;8.69;91.25;102998.78;5049600;28;20130;-41
2021/11/23 06:49:13;;;;;;;11.05;2.28;;;;;;;8.67;91.70;103001.63;5050219;28;20126;-41
2021/11/23 06:51:39;;;;;;;12.13;1.73;;;;;;;8.65;91.73;102997.34;5050733;28;20040;-40
2021/11/23 06:54:04;;;;;;;17.75;1.90;;;;;;;8.61;91.98;103001.22;5049256;28;20014;-40
2021/11/23 06:56:30;;;;;;;14.50;1.70;;;;;;;8.58;92.63;102996.91;5050903;28;20501;-41
2021/11/23 06:58:58;;;;;;;12.85;1.65;;;;;;;8.57;92.94;102997.91;5051155;28;20036;-41
2021/11/23 07:01:24;;;;;;;10.45;1.73;;;;;;;8.54;92.89;102998.16;5049590;28;20033;-40
2021/11/23 07:03:49;;;;;;;15.80;1.40;;;;;;;8.53;93.01;102999.97;5053551;28;20436;-40
2021/11/23 07:06:15;;;;;;;13.50;2.55;;;;;;;8.53;93.09;102997.28;5050118;28;20025;-41
2021/11/23 07:08:40;;;;;;;17.88;1.73;;;;;;;8.53;93.09;103002.66;5050188;28;20025;-42
2021/11/23 07:11:06;;;;;;;10.35;2.08;;;;;;;8.51;93.24;103009.97;5043597;28;20033;-41
2021/11/23 07:13:33;;;;;;;15.35;2.33;;;;;;;8.50;93.25;103013.59;5051999;28;20049;-40
2021/11/23 07:15:59;;;;;;;21.02;2.40;;;;;;;8.50;93.45;103018.13;5053637;28;20430;-40
2021/11/23 07:18:24;;;;;;;9.98;1.75;;;;;;;8.48;93.38;103017.41;5052679;28;20068;-41
2021/11/23 07:20:49;;;;;;;19.27;2.40;;;;;;;8.48;93.40;103025.44;5051887;28;20452;-41
2021/11/23 07:23:15;;;;;;;15.05;2.33;;;;;;;8.48;93.09;103020.94;5053303;28;20127;-41
2021/11/23 07:25:40;;;;;;;16.65;2.65;;;;;;;8.50;93.37;103024.34;5054197;28;20028;-40
2021/11/23 07:28:06;;;;;;;19.08;3.72;;;;;;;8.54;93.19;103030.34;5049106;28;20032;-40
2021/11/23 07:30:31;;;;;;;11.75;2.30;;;;;;;8.53;93.68;103024.13;5053799;28;20025;-41
2021/11/23 07:32:57;;;;;;;16.25;2.60;;;;;;;8.53;93.72;103024.13;5053435;28;20033;-41
2021/11/23 07:35:23;;;;;;;13.70;2.40;;;;;;;8.56;93.70;103029.28;5052995;28;20029;-41
2021/11/23 07:37:48;;;;;;;14.93;3.05;;;;;;;8.56;93.63;103029.28;5052436;28;20104;-41
2021/11/23 07:40:15;;;;;;;16.02;3.03;;;;;;;8.59;93.54;103035.38;5053662;28;20032;-41
2021/11/23 07:42:41;;;;;;;20.45;3.25;;;;;;;8.59;93.76;103032.69;5053595;28;20023;-41
2021/11/23 07:45:08;;;;;;;21.73;2.60;;;;;;;8.57;93.46;103036.34;5052703;28;20079;-41
2021/11/23 07:47:33;;;;;;;12.77;2.80;;;;;;;8.62;93.76;103037.84;5046288;28;20033;-40
2021/11/23 07:49:59;;;;;;;16.77;2.65;;;;;;;8.61;93.48;103041.47;5053945;28;20028;-41
2021/11/23 07:52:24;;;;;;;11.82;2.97;;;;;;;8.63;92.96;103039.53;5053273;28;20388;-39
2021/11/23 07:54:50;;;;;;;18.05;2.47;;;;;;;8.60;92.61;103047.81;5054179;28;20025;-40
2021/11/23 07:57:15;;;;;;;21.90;3.30;;;;;;;8.60;92.99;103047.81;5054440;28;20391;-40
2021/11/23 07:59:41;;;;;;;23.48;3.20;;;;;;;8.57;92.90;103047.06;5052734;28;20033;-41
2021/11/23 08:02:06;;;;;;;21.73;3.40;;;;;;;8.62;92.92;103053.94;5054617;28;20096;-41
2021/11/23 08:04:31;;;;;;;15.35;2.40;;;;;;;8.69;92.33;103055.16;5053170;28;20029;-42
2021/11/23 08:06:57;;;;;;;18.65;2.60;;;;;;;8.68;92.31;103061.53;5054528;28;20486;-41
2021/11/23 08:09:22;;;;;;;20.50;2.22;;;;;;;8.70;92.19;103059.59;5054100;28;20028;-41
2021/11/23 08:11:48;;;;;;;13.23;2.60;;;;;;;8.73;91.86;103060.19;5054367;28;20064;-40
2021/11/23 08:14:13;;;;;;;18.23;2.25;;;;;;;8.82;92.09;103061.34;5044818;28;20060;-41
2021/11/23 08:16:38;;;;;;;17.42;2.40;;;;;;;8.88;92.16;103065.41;5033076;28;20044;-40
2021/11/23 08:19:05;;;;;;;15.93;1.88;;;;;;;9.07;91.73;103059.47;5034478;28;20083;-41
2021/11/23 08:21:30;;;;;;;13.48;2.47;;;;;;;9.32;92.10;103059.31;5034480;28;20014;-41
2021/11/23 08:23:56;;;;;;;12.02;2.28;;;;;;;9.82;92.11;103065.22;5051648;28;20078;-41
2021/11/23 08:26:23;;;;;;;12.18;2.50;;;;;;;10.69;90.77;103065.31;5054150;28;20392;-42
2021/11/23 08:28:49;;;;;;;15.15;2.25;;;;;;;11.84;85.26;103070.72;5053900;28;20032;-41
2021/11/23 08:31:14;;;;;;;13.73;1.75;;;;;;;12.99;79.66;103070.25;5054141;28;20058;-41
2021/11/23 08:33:41;;;;;;;16.80;2.75;;;;;;;14.15;74.29;103067.19;5054207;28;20032;-41
2021/11/23 08:36:07;;;;;;;10.43;2.30;;;;;;;14.86;69.36;103071.03;5054077;28;20059;-42
2021/11/23 08:38:32;;;;;;;12.25;2.35;;;;;;;15.08;67.43;103072.38;5051554;28;20430;-40
2021/11/23 08:40:57;;;;;;;13.20;1.92;;;;;;;15.72;67.17;103078.47;5053847;28;20491;-41
2021/11/23 08:43:23;;;;;;;9.23;2.22;;;;;;;15.80;65.78;103076.63;5052607;28;20037;-40
2021/11/23 08:45:49;;;;;;;14.18;2.10;;;;;;;15.55;66.08;103078.31;5053495;28;20025;-41
2021/11/23 08:48:14;;;;;;;16.55;1.95;;;;;;;14.90;66.08;103064.25;5053775;28;20028;-41
2021/11/23 08:50:40;;;;;;;12.65;1.67;;;;;;;14.66;67.03;103065.75;5053188;28;20020;-41
2021/11/23 08:53:08;;;;;;;15.43;2.00;;;;;;;14.52;68.21;103068.13;5053742;28;20035;-41
2021/11/23 08:55:34;;;;;;;11.93;2.05;;;;;;;13.98;70.04;103076.13;5052282;28;20028;-42
2021/11/23 08:57:59;;;;;;;16.70;2.03;;;;;;;13.64;71.95;103070.41;5053643;28;20067;-41
2021/11/23 09:00:25;;;;;;;18.88;2.28;;;;;;;13.47;72.20;103064.78;5051230;28;20328;-41
2021/11/23 09:02:57;;;;;;;13.93;2.10;;;;;;;13.19;73.39;103066.50;5053620;28;20086;-41
2021/11/23 09:05:23;;;;;;;10.68;1.73;;;;;;;12.95;74.31;103065.13;5053202;28;20131;-41
2021/11/23 09:07:49;;;;;;;14.45;2.40;;;;;;;12.65;73.83;103070.69;5052679;28;20124;-41
2021/11/23 09:10:20;;;;;;;10.20;1.95;;;;;;;12.42;74.55;103079.03;5058854;28;20540;-41
2021/11/23 09:12:48;;;;;;;16.98;2.30;;;;;;;12.50;74.33;103071.06;5065241;28;20076;-40
2021/11/23 09:15:13;;;;;;;11.15;1.88;;;;;;;12.27;74.82;103083.13;5052043;28;20048;-40
2021/11/23 09:17:40;;;;;;;13.90;2.00;;;;;;;11.91;76.04;103082.72;5053222;28;20025;-41
2021/11/23 09:20:06;;;;;;;15.35;2.28;;;;;;;11.63;76.81;103090.50;5052095;28;20036;-41
2021/11/23 09:22:31;;;;;;;10.50;1.92;;;;;;;11.49;77.46;103088.16;5052931;28;20025;-42
2021/11/23 09:24:57;;;;;;;16.98;1.80;;;;;;;11.46;77.93;103087.56;5052528;28;20029;-42
2021/11/23 09:27:22;;;;;;;13.65;1.95;;;;;;;11.32;78.22;103089.63;5051156;28;20122;-43
2021/11/23 09:29:48;;;;;;;13.55;2.25;;;;;;;11.16;79.17;103086.50;5052874;28;20025;-43
2021/11/23 09:32:13;;;;;;;14.18;1.95;;;;;;;11.16;79.88;103090.09;5052411;28;20025;-42
2021/11/23 09:34:39;;;;;;;8.32;1.30;;;;;;;11.14;79.98;103089.34;5052969;28;20032;-42
2021/11/23 09:37:04;;;;;;;10.15;1.92;;;;;;;11.33;79.90;103093.16;5049700;28;20087;-43
2021/11/23 09:39:30;;;;;;;12.02;1.67;;;;;;;11.52;78.99;103093.28;5052780;28;20029;-41
2021/11/23 09:41:55;;;;;;;10.32;1.55;;;;;;;11.62;78.13;103094.19;5052897;28;20029;-43
2021/11/23 09:44:21;;;;;;;8.80;1.23;;;;;;;11.73;78.63;103089.69;5052550;28;20039;-42
2021/11/23 09:46:46;;;;;;;8.43;1.40;;;;;;;11.86;78.00;103095.75;5052752;28;20036;-42
2021/11/23 09:49:11;;;;;;;14.60;1.92;;;;;;;11.94;77.29;103087.84;5053360;28;20025;-42
2021/11/23 09:51:37;;;;;;;16.02;1.77;;;;;;;11.91;76.82;103098.06;5051244;28;20473;-42
2021/11/23 09:54:06;;;;;;;9.15;2.03;;;;;;;11.92;77.28;103097.91;5051711;28;20032;-42
2021/11/23 09:56:32;;;;;;;13.35;2.17;;;;;;;12.20;76.07;103100.88;5052473;28;20026;-42
2021/11/23 09:58:58;;;;;;;8.50;1.35;;;;;;;12.18;75.10;103106.38;5041615;28;20144;-43
2021/11/23 10:01:29;;;;;;;6.85;1.35;;;;;;;12.00;74.96;103102.63;5045077;28;20025;-43
2021/11/23 10:03:55;;;;;;;13.27;1.75;;;;;;;11.86;75.80;103103.84;5050587;28;20025;-42
2021/11/23 10:06:24;;;;;;;8.25;1.80;;;;;;;11.61;77.11;103099.72;5032330;28;20026;-42
2021/11/23 10:08:53;;;;;;;9.50;1.08;;;;;;;11.55;78.04;103101.09;5016389;28;20033;-43
2021/11/23 10:11:21;;;;;;;12.23;1.30;;;;;;;11.41;78.55;103105.00;5041935;28;20031;-43
2021/11/23 10:13:50;;;;;;;9.10;1.02;;;;;;;11.36;79.42;103099.13;5052165;28;20056;-43
2021/11/23 10:16:16;;;;;;;8.95;1.13;;;;;;;11.48;79.18;103105.34;5052059;28;20063;-42
2021/11/23 10:18:42;;;;;;;4.43;0.80;;;;;;;11.42;79.70;103105.84;5051900;28;20036;-42
2021/11/23 10:21:11;;;;;;;7.53;1.05;;;;;;;11.27;79.49;103108.03;5051923;28;20490;-42
2021/11/23 10:23:42;;;;;;;3.50;0.57;;;;;;;11.09;79.96;103107.75;5051763;28;20472;-43
2021/11/23 10:26:25;;;;;;;8.57;0.55;;;;;;;10.89;81.08;103104.03;5050839;28;20021;-42
2021/11/23 10:28:56;;;;;;;3.15;0.32;;;;;;;10.72;81.55;103105.44;5051992;28;20064;-42
2021/11/23 10:31:28;;;;;;;3.70;0.70;;;;;;;10.71;81.95;103109.09;5051958;28;20029;-42
2021/11/23 10:34:01;;;;;;;5.15;0.80;;;;;;;10.64;82.47;103097.16;5050670;28;20056;-42
2021/11/23 10:36:34;;;;;;;5.55;0.80;;;;;;;10.51;83.24;103096.47;5051617;28;20025;-41
2021/11/23 10:39:10;;;;;;;2.70;0.77;;;;;;;10.50;84.62;103094.72;5050208;28;20033;-43
2021/11/23 10:41:36;;;;;;;6.15;1.00;;;;;;;10.52;85.15;103092.78;5052129;28;20032;-42
2021/11/23 10:44:01;;;;;;;5.97;0.93;;;;;;;10.68;84.83;103082.44;5052099;28;20025;-43
2021/11/23 10:46:30;;;;;;;4.03;0.77;;;;;;;10.75;83.52;103086.34;5055103;28;20028;-41
2021/11/23 10:48:57;;;;;;;5.03;0.82;;;;;;;10.81;83.08;103081.41;5055782;28;20039;-42
2021/11/23 10:51:24;;;;;;;8.10;1.20;;;;;;;10.89;82.74;103081.63;5055662;28;20104;-41
2021/11/23 10:53:49;;;;;;;18.00;8.57;;;;;;;10.95;83.49;103081.97;5055970;28;20109;-42
2021/11/23 10:56:17;;;;;;;11.13;2.90;;;;;;;11.18;83.09;103076.47;5055633;28;20111;-42
2021/11/23 10:58:45;;;;;;;6.18;1.25;;;;;;;11.40;81.18;103078.16;5056050;28;20029;-42
2021/11/23 11:01:12;;;;;;;7.45;0.90;;;;;;;11.51;80.92;103077.25;5054110;28;20036;-43
2021/11/23 11:03:39;;;;;;;6.32;1.05;;;;;;;11.67;79.40;103074.06;5056093;28;20051;-42
2021/11/23 11:06:05;;;;;;;6.97;1.17;;;;;;;11.64;79.75;103075.19;5051018;28;20037;-42
2021/11/23 11:08:36;;;;;;;8.70;1.45;;;;;;;11.77;78.77;103066.84;5039628;28;20018;-42
2021/11/23 11:11:04;;;;;;;5.40;0.95;;;;;;;11.88;78.24;103069.50;5055355;28;20028;-41
2021/11/23 11:13:30;;;;;;;4.65;0.90;;;;;;;11.97;77.99;103065.13;5052184;28;20041;-42
2021/11/23 11:15:57;;;;;;;8.73;1.60;;;;;;;12.07;77.62;103056.06;5034023;28;20439;-43
2021/11/23 11:18:23;;;;;;;6.53;1.10;;;;;;;12.35;77.34;103052.72;5034352;28;20037;-42
2021/11/23 11:20:58;;;;;;;6.68;0.80;;;;;;;12.87;75.21;103059.56;5042613;28;20100;-42
2021/11/23 11:23:27;;;;;;;7.20;0.90;;;;;;;13.37;73.95;103062.09;5053679;28;20120;-42